createdAt,value
2022-10-15T00:00:18.650Z,4
2022-10-15T00:01:18.680Z,4
2022-10-15T00:02:18.616Z,4
2022-10-15T00:03:18.538Z,4
2022-10-15T00:04:18.632Z,3
2022-10-15T00:05:18.543Z,4
2022-10-15T00:06:18.549Z,3
2022-10-15T00:07:18.533Z,3
2022-10-15T00:08:18.571Z,4
2022-10-15T00:09:18.561Z,3
2022-10-15T00:10:18.511Z,3
2022-10-15T00:11:18.542Z,3
2022-10-15T00:12:18.581Z,3
2022-10-15T00:13:18.602Z,3
2022-10-15T00:14:18.609Z,3
2022-10-15T00:15:18.611Z,3
2022-10-15T00:16:18.529Z,3
2022-10-15T00:17:18.555Z,3
2022-10-15T00:18:18.608Z,4
2022-10-15T00:19:18.620Z,3
2022-10-15T00:20:18.624Z,3
2022-10-15T00:21:18.549Z,3
2022-10-15T00:22:18.543Z,3
2022-10-15T00:23:18.545Z,3
2022-10-15T00:24:18.512Z,4
2022-10-15T00:25:18.513Z,4
2022-10-15T00:26:18.589Z,4
2022-10-15T00:27:18.573Z,4
2022-10-15T00:28:18.589Z,4
2022-10-15T00:29:18.578Z,4
2022-10-15T00:30:18.614Z,5
2022-10-15T00:31:18.618Z,5
2022-10-15T00:32:18.609Z,4
2022-10-15T00:33:18.613Z,4
2022-10-15T00:34:18.620Z,4
2022-10-15T00:35:18.622Z,4
2022-10-15T00:36:18.544Z,4
2022-10-15T00:37:18.509Z,4
2022-10-15T00:38:18.589Z,4
2022-10-15T00:39:18.552Z,4
2022-10-15T00:40:18.521Z,4
2022-10-15T00:41:18.577Z,3
2022-10-15T00:42:18.564Z,4
2022-10-15T00:43:18.672Z,4
2022-10-15T00:44:18.518Z,4
2022-10-15T00:45:18.628Z,4
2022-10-15T00:46:18.654Z,4
2022-10-15T00:47:18.590Z,4
2022-10-15T00:48:18.609Z,3
2022-10-15T00:49:18.616Z,4
2022-10-15T00:50:18.608Z,3
2022-10-15T00:51:18.568Z,3
2022-10-15T00:52:18.513Z,3
2022-10-15T00:53:18.528Z,3
2022-10-15T00:54:18.537Z,4
2022-10-15T00:55:18.518Z,4
2022-10-15T00:56:18.573Z,4
2022-10-15T00:57:18.561Z,4
2022-10-15T00:58:18.677Z,4
2022-10-15T00:59:18.513Z,4
2022-10-15T01:00:18.547Z,3
2022-10-15T01:01:18.620Z,3
2022-10-15T01:02:18.588Z,3
2022-10-15T01:03:18.601Z,3
2022-10-15T01:04:18.512Z,4
2022-10-15T01:05:18.531Z,4
2022-10-15T01:06:18.569Z,3
2022-10-15T01:07:18.630Z,2
2022-10-15T01:08:18.542Z,3
2022-10-15T01:09:18.548Z,2
2022-10-15T01:10:18.543Z,3
2022-10-15T01:11:18.545Z,2
2022-10-15T01:12:18.556Z,3
2022-10-15T01:13:18.562Z,3
2022-10-15T01:14:18.563Z,3
2022-10-15T01:15:18.601Z,3
2022-10-15T01:16:18.609Z,3
2022-10-15T01:17:18.520Z,3
2022-10-15T01:18:18.595Z,3
2022-10-15T01:19:18.581Z,3
2022-10-15T01:20:18.526Z,3
2022-10-15T01:21:18.676Z,4
2022-10-15T01:22:18.621Z,5
2022-10-15T01:23:20.186Z,3
2022-10-15T01:24:18.621Z,5
2022-10-15T01:25:18.541Z,3
2022-10-15T01:26:18.550Z,4
2022-10-15T01:27:18.556Z,5
2022-10-15T01:28:18.589Z,3
2022-10-15T01:29:18.570Z,3
2022-10-15T01:30:18.596Z,4
2022-10-15T01:31:18.542Z,4
2022-10-15T01:32:18.540Z,3
2022-10-15T01:33:18.599Z,3
2022-10-15T01:35:18.544Z,4
2022-10-15T01:36:18.643Z,6
2022-10-15T01:37:18.628Z,5
2022-10-15T01:38:18.521Z,5
2022-10-15T01:39:18.623Z,4
2022-10-15T01:40:18.549Z,6
2022-10-15T01:41:18.836Z,4
2022-10-15T01:42:18.545Z,3
2022-10-15T01:43:18.715Z,4
2022-10-15T01:44:18.568Z,4
2022-10-15T01:45:18.567Z,6
2022-10-15T01:46:18.704Z,3
2022-10-15T01:47:18.544Z,6
2022-10-15T01:48:18.529Z,3
2022-10-15T01:49:18.565Z,4
2022-10-15T01:50:18.605Z,4
2022-10-15T01:51:18.616Z,6
2022-10-15T01:52:18.603Z,5
2022-10-15T01:53:18.627Z,4
2022-10-15T01:54:18.617Z,4
2022-10-15T01:55:18.618Z,5
2022-10-15T01:56:18.667Z,4
2022-10-15T01:57:18.538Z,7
2022-10-15T01:58:18.552Z,4
2022-10-15T01:59:18.565Z,3
2022-10-15T02:00:18.563Z,4
2022-10-15T02:01:18.678Z,4
2022-10-15T02:02:18.520Z,4
2022-10-15T02:03:18.571Z,5
2022-10-15T02:04:18.587Z,3
2022-10-15T02:05:18.513Z,4
2022-10-15T02:06:18.596Z,4
2022-10-15T02:07:18.598Z,4
2022-10-15T02:08:18.615Z,4
2022-10-15T02:09:18.621Z,4
2022-10-15T02:10:18.638Z,3
2022-10-15T02:11:18.541Z,4
2022-10-15T02:12:18.553Z,4
2022-10-15T02:13:18.549Z,5
2022-10-15T02:14:18.678Z,5
2022-10-15T02:15:18.545Z,4
2022-10-15T02:16:18.581Z,5
2022-10-15T02:17:18.598Z,5
2022-10-15T02:18:18.583Z,4
2022-10-15T02:19:18.528Z,4
2022-10-15T02:20:18.579Z,4
2022-10-15T02:21:18.598Z,5
2022-10-15T02:22:18.596Z,4
2022-10-15T02:23:18.601Z,5
2022-10-15T02:24:18.693Z,5
2022-10-15T02:25:18.615Z,5
2022-10-15T02:26:18.639Z,6
2022-10-15T02:27:18.629Z,6
2022-10-15T02:28:18.700Z,6
2022-10-15T02:29:18.639Z,5
2022-10-15T02:30:18.656Z,6
2022-10-15T02:31:18.549Z,6
2022-10-15T02:32:18.565Z,6
2022-10-15T02:33:18.535Z,6
2022-10-15T02:34:18.575Z,6
2022-10-15T02:35:18.569Z,7
2022-10-15T02:36:18.615Z,7
2022-10-15T02:37:18.552Z,6
2022-10-15T02:38:18.601Z,7
2022-10-15T02:39:18.525Z,7
2022-10-15T02:40:18.617Z,7
2022-10-15T02:41:18.643Z,7
2022-10-15T02:42:18.550Z,8
2022-10-15T02:43:18.627Z,8
2022-10-15T02:44:18.647Z,8
2022-10-15T02:45:18.604Z,8
2022-10-15T02:46:18.572Z,8
2022-10-15T02:47:18.623Z,7
2022-10-15T02:48:18.560Z,8
2022-10-15T02:49:18.595Z,8
2022-10-15T02:50:18.533Z,8
2022-10-15T02:51:18.582Z,8
2022-10-15T02:52:18.588Z,9
2022-10-15T02:53:18.587Z,9
2022-10-15T02:54:18.595Z,9
2022-10-15T02:55:18.525Z,9
2022-10-15T02:56:18.684Z,9
2022-10-15T02:57:18.529Z,9
2022-10-15T02:58:18.623Z,10
2022-10-15T02:59:18.544Z,10
2022-10-15T03:00:18.635Z,9
2022-10-15T03:01:18.636Z,10
2022-10-15T03:02:19.421Z,10
2022-10-15T03:03:18.656Z,9
2022-10-15T03:04:18.552Z,10
2022-10-15T03:05:18.656Z,10
2022-10-15T03:06:18.567Z,9
2022-10-15T03:07:18.535Z,10
2022-10-15T03:08:18.542Z,10
2022-10-15T03:09:18.624Z,11
2022-10-15T03:10:18.608Z,10
2022-10-15T03:11:18.620Z,10
2022-10-15T03:12:18.548Z,10
2022-10-15T03:13:18.625Z,11
2022-10-15T03:14:18.664Z,11
2022-10-15T03:15:18.534Z,11
2022-10-15T03:16:18.670Z,11
2022-10-15T03:17:18.644Z,11
2022-10-15T03:18:18.546Z,11
2022-10-15T03:19:18.533Z,11
2022-10-15T03:20:18.585Z,11
2022-10-15T03:21:18.576Z,11
2022-10-15T03:22:18.574Z,12
2022-10-15T03:23:18.646Z,11
2022-10-15T03:24:18.691Z,11
2022-10-15T03:25:18.581Z,11
2022-10-15T03:26:18.616Z,11
2022-10-15T03:27:18.612Z,11
2022-10-15T03:28:18.664Z,11
2022-10-15T03:29:18.619Z,11
2022-10-15T03:30:18.629Z,11
2022-10-15T03:31:18.706Z,11
2022-10-15T03:32:18.587Z,11
2022-10-15T03:33:20.791Z,11
2022-10-15T03:34:18.543Z,11
2022-10-15T03:35:18.540Z,11
2022-10-15T03:36:18.561Z,11
2022-10-15T03:37:18.576Z,11
2022-10-15T03:38:18.578Z,11
2022-10-15T03:39:18.576Z,11
2022-10-15T03:40:18.605Z,12
2022-10-15T03:41:18.610Z,10
2022-10-15T03:42:18.601Z,10
2022-10-15T03:43:18.602Z,11
2022-10-15T03:44:18.548Z,10
2022-10-15T03:45:18.539Z,11
2022-10-15T03:46:18.654Z,10
2022-10-15T03:47:18.635Z,11
2022-10-15T03:48:18.643Z,10
2022-10-15T03:49:18.664Z,11
2022-10-15T03:50:18.563Z,11
2022-10-15T03:51:22.741Z,11
2022-10-15T03:52:18.572Z,12
2022-10-15T03:53:18.567Z,11
2022-10-15T03:54:18.582Z,11
2022-10-15T03:55:18.580Z,11
2022-10-15T03:56:18.556Z,10
2022-10-15T03:57:18.591Z,9
2022-10-15T03:58:18.656Z,11
2022-10-15T03:59:18.603Z,11
2022-10-15T04:00:18.615Z,10
2022-10-15T04:01:18.795Z,8
2022-10-15T04:02:18.635Z,11
2022-10-15T04:03:18.623Z,10
2022-10-15T04:04:18.644Z,10
2022-10-15T04:05:18.641Z,8
2022-10-15T04:06:18.566Z,7
2022-10-15T04:07:18.540Z,7
2022-10-15T04:08:18.666Z,7
2022-10-15T04:09:18.550Z,10
2022-10-15T04:10:27.590Z,10
2022-10-15T04:11:18.712Z,12
2022-10-15T04:12:18.588Z,13
2022-10-15T04:13:18.604Z,10
2022-10-15T04:14:18.625Z,8
2022-10-15T04:15:18.641Z,9
2022-10-15T04:16:18.601Z,8
2022-10-15T04:17:18.614Z,8
2022-10-15T04:18:18.634Z,8
2022-10-15T04:19:18.624Z,9
2022-10-15T04:20:18.639Z,8
2022-10-15T04:21:18.667Z,9
2022-10-15T04:22:18.679Z,8
2022-10-15T04:23:18.548Z,8
2022-10-15T04:24:18.555Z,7
2022-10-15T04:25:18.566Z,8
2022-10-15T04:26:18.697Z,9
2022-10-15T04:27:18.601Z,8
2022-10-15T04:28:18.626Z,8
2022-10-15T04:29:18.591Z,7
2022-10-15T04:30:18.701Z,7
2022-10-15T04:31:18.637Z,7
2022-10-15T04:32:18.548Z,7
2022-10-15T04:33:18.625Z,6
2022-10-15T04:34:18.594Z,6
2022-10-15T04:35:18.646Z,7
2022-10-15T04:36:18.577Z,6
2022-10-15T04:37:18.644Z,6
2022-10-15T04:38:18.552Z,5
2022-10-15T04:39:18.535Z,5
2022-10-15T04:40:18.554Z,6
2022-10-15T04:41:18.590Z,7
2022-10-15T04:42:18.588Z,7
2022-10-15T04:43:18.570Z,7
2022-10-15T04:44:18.566Z,6
2022-10-15T04:45:18.626Z,7
2022-10-15T04:46:18.639Z,7
2022-10-15T04:47:18.608Z,7
2022-10-15T04:48:18.613Z,7
2022-10-15T04:49:18.619Z,6
2022-10-15T04:50:18.600Z,7
2022-10-15T04:51:18.559Z,7
2022-10-15T04:52:18.637Z,6
2022-10-15T04:53:18.572Z,7
2022-10-15T04:54:18.744Z,7
2022-10-15T04:55:18.666Z,6
2022-10-15T04:56:18.575Z,5
2022-10-15T04:57:18.680Z,4
2022-10-15T04:58:18.586Z,6
2022-10-15T04:59:18.580Z,5
2022-10-15T05:00:18.594Z,5
2022-10-15T05:01:18.620Z,5
2022-10-15T05:02:18.671Z,6
2022-10-15T05:03:18.607Z,5
2022-10-15T05:04:18.619Z,6
2022-10-15T05:05:18.607Z,5
2022-10-15T05:06:18.578Z,5
2022-10-15T05:07:18.630Z,5
2022-10-15T05:08:18.656Z,5
2022-10-15T05:09:18.558Z,6
2022-10-15T05:10:18.663Z,6
2022-10-15T05:11:18.581Z,6
2022-10-15T05:12:18.707Z,5
2022-10-15T05:13:18.677Z,5
2022-10-15T05:14:18.562Z,5
2022-10-15T05:15:18.682Z,5
2022-10-15T05:16:18.634Z,6
2022-10-15T05:17:18.553Z,6
2022-10-15T05:18:18.559Z,6
2022-10-15T05:19:18.600Z,7
2022-10-15T05:20:18.657Z,6
2022-10-15T05:21:18.619Z,6
2022-10-15T05:22:18.629Z,7
2022-10-15T05:23:18.642Z,6
2022-10-15T05:24:18.672Z,6
2022-10-15T05:25:18.553Z,4
2022-10-15T05:26:18.684Z,6
2022-10-15T05:27:18.669Z,6
2022-10-15T05:28:18.717Z,6
2022-10-15T05:29:18.672Z,6
2022-10-15T05:30:18.552Z,6
2022-10-15T05:31:19.329Z,6
2022-10-15T05:33:18.563Z,6
2022-10-15T05:34:18.608Z,7
2022-10-15T05:35:18.615Z,5
2022-10-15T05:36:18.606Z,6
2022-10-15T05:37:18.559Z,5
2022-10-15T05:38:18.631Z,7
2022-10-15T05:39:18.641Z,6
2022-10-15T05:40:21.234Z,7
2022-10-15T05:41:18.652Z,8
2022-10-15T05:42:18.655Z,7
2022-10-15T05:43:18.587Z,6
2022-10-15T05:44:18.598Z,7
2022-10-15T05:45:18.551Z,6
2022-10-15T05:46:18.758Z,8
2022-10-15T05:47:18.565Z,7
2022-10-15T05:48:18.592Z,6
2022-10-15T05:49:18.597Z,7
2022-10-15T05:50:18.615Z,6
2022-10-15T05:51:18.628Z,6
2022-10-15T05:52:18.625Z,6
2022-10-15T05:53:18.568Z,7
2022-10-15T05:54:18.578Z,7
2022-10-15T05:55:18.663Z,7
2022-10-15T05:56:18.581Z,6
2022-10-15T05:57:18.661Z,6
2022-10-15T05:58:18.565Z,6
2022-10-15T05:59:18.660Z,7
2022-10-15T06:00:18.614Z,6
2022-10-15T06:01:18.602Z,6
2022-10-15T06:02:18.750Z,6
2022-10-15T06:03:18.585Z,5
2022-10-15T06:04:18.559Z,5
2022-10-15T06:05:18.609Z,5
2022-10-15T06:06:18.651Z,6
2022-10-15T06:07:18.618Z,6
2022-10-15T06:08:18.620Z,5
2022-10-15T06:09:18.562Z,5
2022-10-15T06:10:18.572Z,6
2022-10-15T06:11:18.642Z,6
2022-10-15T06:12:18.655Z,6
2022-10-15T06:13:18.716Z,6
2022-10-15T06:14:18.606Z,6
2022-10-15T06:15:18.668Z,5
2022-10-15T06:16:22.552Z,7
2022-10-15T06:17:18.549Z,5
2022-10-15T06:18:18.559Z,6
2022-10-15T06:19:18.562Z,6
2022-10-15T06:20:18.556Z,6
2022-10-15T06:21:18.613Z,6
2022-10-15T06:22:18.569Z,6
2022-10-15T06:23:18.624Z,5
2022-10-15T06:24:18.561Z,5
2022-10-15T06:25:18.570Z,5
2022-10-15T06:26:18.680Z,6
2022-10-15T06:27:18.638Z,5
2022-10-15T06:28:18.708Z,6
2022-10-15T06:29:18.653Z,5
2022-10-15T06:30:18.578Z,5
2022-10-15T06:31:18.710Z,6
2022-10-15T06:32:18.578Z,6
2022-10-15T06:33:18.575Z,6
2022-10-15T06:34:18.578Z,5
2022-10-15T06:35:18.584Z,6
2022-10-15T06:36:18.587Z,6
2022-10-15T06:37:18.568Z,5
2022-10-15T06:38:18.609Z,6
2022-10-15T06:39:18.558Z,6
2022-10-15T06:40:18.615Z,5
2022-10-15T06:41:18.704Z,5
2022-10-15T06:42:18.708Z,5
2022-10-15T06:43:18.646Z,5
2022-10-15T06:44:18.898Z,5
2022-10-15T06:45:21.032Z,4
2022-10-15T06:46:18.704Z,4
2022-10-15T06:47:18.668Z,5
2022-10-15T06:48:18.578Z,4
2022-10-15T06:49:18.578Z,4
2022-10-15T06:50:18.589Z,4
2022-10-15T06:51:18.582Z,4
2022-10-15T06:52:18.556Z,3
2022-10-15T06:53:18.612Z,4
2022-10-15T06:54:18.609Z,4
2022-10-15T06:55:18.691Z,3
2022-10-15T06:56:18.639Z,3
2022-10-15T06:57:18.822Z,3
2022-10-15T06:58:18.687Z,3
2022-10-15T06:59:18.758Z,3
2022-10-15T07:00:18.860Z,3
2022-10-15T07:01:18.870Z,3
2022-10-15T07:02:18.825Z,3
2022-10-15T07:03:18.783Z,3
2022-10-15T07:04:18.856Z,3
2022-10-15T07:05:18.677Z,3
2022-10-15T07:06:18.916Z,3
2022-10-15T07:07:18.585Z,3
2022-10-15T07:08:19.463Z,3
2022-10-15T07:09:19.021Z,3
2022-10-15T07:10:18.601Z,3
2022-10-15T07:11:18.622Z,3
2022-10-15T07:12:18.620Z,3
2022-10-15T07:13:18.631Z,3
2022-10-15T07:14:18.555Z,3
2022-10-15T07:15:18.641Z,3
2022-10-15T07:16:18.604Z,3
2022-10-15T07:17:18.656Z,3
2022-10-15T07:18:18.556Z,3
2022-10-15T07:19:18.568Z,3
2022-10-15T07:20:21.809Z,3
2022-10-15T07:21:18.607Z,3
2022-10-15T07:22:18.587Z,3
2022-10-15T07:23:18.590Z,3
2022-10-15T07:24:18.598Z,3
2022-10-15T07:25:18.713Z,3
2022-10-15T07:26:18.587Z,3
2022-10-15T07:27:19.388Z,3
2022-10-15T07:28:18.688Z,2
2022-10-15T07:29:18.635Z,3
2022-10-15T07:30:18.602Z,3
2022-10-15T07:31:18.590Z,3
2022-10-15T07:32:18.656Z,3
2022-10-15T07:33:18.654Z,3
2022-10-15T07:34:18.671Z,2
2022-10-15T07:35:18.679Z,2
2022-10-15T07:36:18.592Z,3
2022-10-15T07:37:18.576Z,2
2022-10-15T07:38:18.588Z,2
2022-10-15T07:39:18.591Z,3
2022-10-15T07:40:18.625Z,4
2022-10-15T07:41:18.591Z,3
2022-10-15T07:42:18.624Z,3
2022-10-15T07:43:18.566Z,4
2022-10-15T07:44:18.581Z,4
2022-10-15T07:45:18.632Z,3
2022-10-15T07:46:18.663Z,3
2022-10-15T07:47:18.636Z,3
2022-10-15T07:48:18.645Z,3
2022-10-15T07:49:18.653Z,3
2022-10-15T07:50:18.559Z,3
2022-10-15T07:51:18.731Z,3
2022-10-15T07:52:18.567Z,3
2022-10-15T07:53:20.602Z,4
2022-10-15T07:54:18.560Z,4
2022-10-15T07:55:18.582Z,3
2022-10-15T07:56:18.618Z,2
2022-10-15T07:57:18.608Z,3
2022-10-15T07:58:18.720Z,3
2022-10-15T07:59:18.645Z,3
2022-10-15T08:00:18.663Z,3
2022-10-15T08:01:18.629Z,2
2022-10-15T08:02:18.646Z,3
2022-10-15T08:03:18.688Z,3
2022-10-15T08:04:18.659Z,3
2022-10-15T08:05:18.578Z,3
2022-10-15T08:06:18.590Z,3
2022-10-15T08:07:18.668Z,3
2022-10-15T08:08:18.576Z,3
2022-10-15T08:09:18.583Z,3
2022-10-15T08:10:18.602Z,3
2022-10-15T08:11:18.700Z,3
2022-10-15T08:12:18.608Z,3
2022-10-15T08:13:18.606Z,3
2022-10-15T08:14:18.610Z,3
2022-10-15T08:15:18.578Z,3
2022-10-15T08:16:18.666Z,3
2022-10-15T08:17:18.558Z,3
2022-10-15T08:18:18.647Z,3
2022-10-15T08:19:18.618Z,3
2022-10-15T08:20:18.566Z,3
2022-10-15T08:21:18.575Z,3
2022-10-15T08:22:18.667Z,3
2022-10-15T08:23:18.907Z,3
2022-10-15T08:24:18.951Z,3
2022-10-15T08:25:18.572Z,3
2022-10-15T08:26:18.615Z,2
2022-10-15T08:27:19.128Z,3
2022-10-15T08:28:18.602Z,3
2022-10-15T08:29:18.613Z,3
2022-10-15T08:30:18.631Z,3
2022-10-15T08:31:18.663Z,3
2022-10-15T08:32:18.595Z,3
2022-10-15T08:33:18.579Z,3
2022-10-15T08:34:18.587Z,3
2022-10-15T08:35:18.629Z,3
2022-10-15T08:36:18.579Z,4
2022-10-15T08:37:18.655Z,4
2022-10-15T08:38:19.846Z,3
2022-10-15T08:39:18.674Z,3
2022-10-15T08:40:18.675Z,2
2022-10-15T08:41:18.597Z,2
2022-10-15T08:42:18.689Z,2
2022-10-15T08:43:18.700Z,2
2022-10-15T08:44:18.598Z,2
2022-10-15T08:45:18.604Z,2
2022-10-15T08:46:18.599Z,2
2022-10-15T08:47:18.566Z,2
2022-10-15T08:48:18.629Z,2
2022-10-15T08:49:18.604Z,2
2022-10-15T08:50:18.655Z,2
2022-10-15T08:51:18.664Z,2
2022-10-15T08:52:18.642Z,2
2022-10-15T08:53:18.660Z,3
2022-10-15T08:54:18.683Z,3
2022-10-15T08:55:18.647Z,3
2022-10-15T08:56:18.860Z,2
2022-10-15T08:57:18.681Z,2
2022-10-15T08:58:18.688Z,3
2022-10-15T08:59:18.602Z,3
2022-10-15T09:00:18.574Z,2
2022-10-15T09:01:18.654Z,2
2022-10-15T09:02:18.586Z,2
2022-10-15T09:03:18.628Z,2
2022-10-15T09:04:18.684Z,2
2022-10-15T09:05:18.630Z,2
2022-10-15T09:06:18.666Z,2
2022-10-15T09:07:18.647Z,2
2022-10-15T09:08:18.651Z,2
2022-10-15T09:09:18.662Z,2
2022-10-15T09:10:18.683Z,2
2022-10-15T09:11:18.691Z,3
2022-10-15T09:12:18.578Z,2
2022-10-15T09:13:18.587Z,2
2022-10-15T09:14:18.681Z,2
2022-10-15T09:15:19.922Z,2
2022-10-15T09:16:18.578Z,2
2022-10-15T09:17:18.580Z,3
2022-10-15T09:18:18.609Z,2
2022-10-15T09:19:18.632Z,2
2022-10-15T09:20:18.625Z,2
2022-10-15T09:21:18.648Z,2
2022-10-15T09:22:18.628Z,2
2022-10-15T09:23:18.640Z,2
2022-10-15T09:24:18.660Z,2
2022-10-15T09:25:18.604Z,2
2022-10-15T09:26:18.689Z,1
2022-10-15T09:27:18.677Z,2
2022-10-15T09:28:18.731Z,1
2022-10-15T09:29:18.684Z,1
2022-10-15T09:30:18.701Z,1
2022-10-15T09:31:18.596Z,1
2022-10-15T09:32:18.616Z,1
2022-10-15T09:33:18.611Z,2
2022-10-15T09:34:18.620Z,2
2022-10-15T09:35:18.619Z,2
2022-10-15T09:36:18.605Z,2
2022-10-15T09:37:18.639Z,3
2022-10-15T09:38:18.639Z,2
2022-10-15T09:39:18.756Z,2
2022-10-15T09:40:18.652Z,1
2022-10-15T09:41:18.675Z,1
2022-10-15T09:42:18.666Z,1
2022-10-15T09:43:18.613Z,1
2022-10-15T09:44:21.113Z,1
2022-10-15T09:45:18.630Z,3
2022-10-15T09:46:18.714Z,1
2022-10-15T09:47:18.689Z,2
2022-10-15T09:48:18.601Z,3
2022-10-15T09:49:18.593Z,2
2022-10-15T09:51:18.635Z,2
2022-10-15T09:52:18.775Z,1
2022-10-15T09:53:18.596Z,1
2022-10-15T09:54:18.654Z,1
2022-10-15T09:55:18.572Z,1
2022-10-15T09:56:18.612Z,1
2022-10-15T09:57:18.655Z,1
2022-10-15T09:58:18.669Z,1
2022-10-15T09:59:18.727Z,1
2022-10-15T10:00:18.672Z,1
2022-10-15T10:01:18.589Z,1
2022-10-15T10:02:18.653Z,1
2022-10-15T10:03:18.721Z,1
2022-10-15T10:04:18.597Z,1
2022-10-15T10:05:18.606Z,1
2022-10-15T10:06:18.635Z,1
2022-10-15T10:07:18.660Z,1
2022-10-15T10:08:18.639Z,1
2022-10-15T10:09:18.601Z,1
2022-10-15T10:10:18.697Z,1
2022-10-15T10:11:18.659Z,1
2022-10-15T10:12:18.594Z,1
2022-10-15T10:13:18.673Z,2
2022-10-15T10:14:18.593Z,1
2022-10-15T10:15:18.681Z,1
2022-10-15T10:16:18.647Z,1
2022-10-15T10:17:18.685Z,1
2022-10-15T10:18:18.698Z,1
2022-10-15T10:19:18.580Z,1
2022-10-15T10:20:18.605Z,1
2022-10-15T10:21:18.626Z,1
2022-10-15T10:22:18.593Z,1
2022-10-15T10:23:18.724Z,1
2022-10-15T10:24:18.626Z,1
2022-10-15T10:25:18.606Z,1
2022-10-15T10:26:18.621Z,1
2022-10-15T10:27:18.759Z,1
2022-10-15T10:28:18.698Z,1
2022-10-15T10:29:32.827Z,1
2022-10-15T10:30:18.694Z,1
2022-10-15T10:31:18.688Z,1
2022-10-15T10:32:18.671Z,1
2022-10-15T10:33:18.612Z,1
2022-10-15T10:34:18.719Z,1
2022-10-15T10:35:18.605Z,1
2022-10-15T10:36:18.609Z,1
2022-10-15T10:37:18.615Z,1
2022-10-15T10:38:18.720Z,1
2022-10-15T10:39:18.721Z,1
2022-10-15T10:40:18.637Z,1
2022-10-15T10:41:18.657Z,1
2022-10-15T10:42:18.643Z,2
2022-10-15T10:43:18.605Z,1
2022-10-15T10:44:18.654Z,1
2022-10-15T10:45:19.124Z,1
2022-10-15T10:46:18.684Z,1
2022-10-15T10:47:18.683Z,1
2022-10-15T10:48:18.691Z,1
2022-10-15T10:49:18.604Z,1
2022-10-15T10:50:18.698Z,1
2022-10-15T10:51:19.625Z,1
2022-10-15T10:52:18.721Z,1
2022-10-15T10:53:18.580Z,0
2022-10-15T10:54:18.623Z,0
2022-10-15T10:55:18.725Z,1
2022-10-15T10:56:18.628Z,1
2022-10-15T10:57:18.635Z,1
2022-10-15T10:58:20.145Z,1
2022-10-15T10:59:18.646Z,1
2022-10-15T11:00:18.595Z,0
2022-10-15T11:01:18.684Z,1
2022-10-15T11:02:18.678Z,0
2022-10-15T11:03:18.596Z,0
2022-10-15T11:04:19.592Z,0
2022-10-15T11:05:18.717Z,0
2022-10-15T11:06:18.620Z,1
2022-10-15T11:07:18.701Z,0
2022-10-15T11:08:18.600Z,0
2022-10-15T11:09:18.717Z,1
2022-10-15T11:10:18.644Z,1
2022-10-15T11:11:18.627Z,1
2022-10-15T11:12:18.633Z,1
2022-10-15T11:13:18.740Z,1
2022-10-15T11:14:18.649Z,0
2022-10-15T11:15:18.655Z,1
2022-10-15T11:16:18.631Z,1
2022-10-15T11:17:18.693Z,0
2022-10-15T11:18:18.684Z,0
2022-10-15T11:19:43.963Z,0
2022-10-15T11:20:32.108Z,1
2022-10-15T11:21:18.718Z,0
2022-10-15T11:23:19.842Z,0
2022-10-15T11:24:18.605Z,1
2022-10-15T11:25:18.611Z,0
2022-10-15T11:26:18.736Z,1
2022-10-15T11:27:18.603Z,1
2022-10-15T11:28:18.734Z,0
2022-10-15T11:29:18.651Z,0
2022-10-15T11:30:18.616Z,0
2022-10-15T11:31:18.778Z,0
2022-10-15T11:32:21.058Z,0
2022-10-15T11:33:18.678Z,0
2022-10-15T11:34:18.672Z,1
2022-10-15T11:35:34.480Z,0
2022-10-15T11:36:18.728Z,1
2022-10-15T11:37:18.618Z,0
2022-10-15T11:38:18.611Z,0
2022-10-15T11:39:18.705Z,1
2022-10-15T11:40:18.752Z,1
2022-10-15T11:41:18.698Z,1
2022-10-15T11:42:18.602Z,1
2022-10-15T11:43:18.634Z,0
2022-10-15T11:44:18.628Z,1
2022-10-15T11:45:18.643Z,0
2022-10-15T11:46:18.637Z,0
2022-10-15T11:47:18.602Z,0
2022-10-15T11:48:18.683Z,0
2022-10-15T11:49:18.666Z,0
2022-10-15T11:50:18.611Z,0
2022-10-15T11:51:18.683Z,1
2022-10-15T11:52:18.686Z,1
2022-10-15T11:53:18.687Z,0
2022-10-15T11:54:18.690Z,1
2022-10-15T11:55:18.704Z,0
2022-10-15T11:56:18.646Z,0
2022-10-15T11:57:18.707Z,0
2022-10-15T11:58:18.615Z,0
2022-10-15T11:59:18.626Z,0
2022-10-15T12:00:18.630Z,0
2022-10-15T12:01:18.612Z,0
2022-10-15T12:02:18.642Z,0
2022-10-15T12:03:18.742Z,1
2022-10-15T12:04:18.790Z,1
2022-10-15T12:05:18.670Z,0
2022-10-15T12:06:18.681Z,1
2022-10-15T12:07:18.701Z,0
2022-10-15T12:08:18.619Z,0
2022-10-15T12:09:18.694Z,0
2022-10-15T12:10:18.610Z,1
2022-10-15T12:11:18.716Z,0
2022-10-15T12:12:18.732Z,0
2022-10-15T12:13:18.730Z,1
2022-10-15T12:14:18.634Z,0
2022-10-15T12:15:18.626Z,1
2022-10-15T12:16:18.650Z,1
2022-10-15T12:17:18.606Z,0
2022-10-15T12:18:18.640Z,0
2022-10-15T12:19:18.664Z,0
2022-10-15T12:20:18.665Z,1
2022-10-15T12:21:18.677Z,1
2022-10-15T12:22:18.767Z,1
2022-10-15T12:23:18.613Z,1
2022-10-15T12:24:18.615Z,1
2022-10-15T12:25:18.695Z,0
2022-10-15T12:26:18.711Z,1
2022-10-15T12:27:18.621Z,1
2022-10-15T12:28:18.767Z,1
2022-10-15T12:29:18.729Z,1
2022-10-15T12:30:18.730Z,1
2022-10-15T12:31:18.645Z,1
2022-10-15T12:32:18.635Z,1
2022-10-15T12:33:18.650Z,1
2022-10-15T12:34:18.647Z,1
2022-10-15T12:35:18.799Z,1
2022-10-15T12:36:18.635Z,1
2022-10-15T12:37:18.605Z,1
2022-10-15T12:38:18.627Z,1
2022-10-15T12:39:27.884Z,1
2022-10-15T12:40:18.682Z,1
2022-10-15T12:41:18.710Z,1
2022-10-15T12:42:18.703Z,1
2022-10-15T12:43:18.704Z,0
2022-10-15T12:44:18.731Z,0
2022-10-15T12:45:18.708Z,1
2022-10-15T12:46:18.737Z,1
2022-10-15T12:47:18.622Z,1
2022-10-15T12:48:18.611Z,1
2022-10-15T12:49:18.642Z,1
2022-10-15T12:50:18.630Z,0
2022-10-15T12:51:18.688Z,1
2022-10-15T12:52:18.669Z,1
2022-10-15T12:53:18.690Z,1
2022-10-15T12:54:18.678Z,1
2022-10-15T12:55:18.618Z,1
2022-10-15T12:56:19.001Z,1
2022-10-15T12:57:18.724Z,1
2022-10-15T12:58:18.691Z,1
2022-10-15T12:59:18.708Z,1
2022-10-15T13:00:18.609Z,1
2022-10-15T13:01:18.825Z,1
2022-10-15T13:02:18.748Z,1
2022-10-15T13:03:18.718Z,1
2022-10-15T13:04:18.582Z,1
2022-10-15T13:05:18.636Z,1
2022-10-15T13:06:18.660Z,0
2022-10-15T13:07:18.746Z,1
2022-10-15T13:08:18.656Z,1
2022-10-15T13:09:18.685Z,1
2022-10-15T13:10:18.672Z,1
2022-10-15T13:11:18.690Z,0
2022-10-15T13:12:18.625Z,1
2022-10-15T13:13:18.686Z,1
2022-10-15T13:14:18.724Z,1
2022-10-15T13:15:18.708Z,0
2022-10-15T13:16:18.715Z,0
2022-10-15T13:17:18.641Z,0
2022-10-15T13:18:18.622Z,1
2022-10-15T13:19:18.733Z,1
2022-10-15T13:20:18.625Z,0
2022-10-15T13:21:18.762Z,1
2022-10-15T13:22:18.757Z,0
2022-10-15T13:23:29.659Z,1
2022-10-15T13:24:18.674Z,0
2022-10-15T13:25:18.670Z,1
2022-10-15T13:26:18.712Z,3
2022-10-15T13:27:18.685Z,2
2022-10-15T13:28:18.698Z,1
2022-10-15T13:29:18.651Z,1
2022-10-15T13:30:18.741Z,1
2022-10-15T13:31:18.631Z,1
2022-10-15T13:32:18.733Z,1
2022-10-15T13:33:18.751Z,1
2022-10-15T13:34:18.740Z,1
2022-10-15T13:35:18.739Z,1
2022-10-15T13:36:18.630Z,1
2022-10-15T13:37:18.646Z,1
2022-10-15T13:38:18.656Z,1
2022-10-15T13:39:18.642Z,0
2022-10-15T13:40:18.749Z,1
2022-10-15T13:41:18.647Z,1
2022-10-15T13:42:18.622Z,0
2022-10-15T13:43:18.619Z,0
2022-10-15T13:44:18.692Z,0
2022-10-15T13:45:18.688Z,0
2022-10-15T13:46:18.663Z,0
2022-10-15T13:47:18.718Z,0
2022-10-15T13:48:18.672Z,0
2022-10-15T13:49:18.621Z,0
2022-10-15T13:50:18.631Z,0
2022-10-15T13:51:18.630Z,0
2022-10-15T13:52:18.738Z,0
2022-10-15T13:53:18.748Z,0
2022-10-15T13:54:18.654Z,0
2022-10-15T13:55:18.634Z,0
2022-10-15T13:56:18.670Z,0
2022-10-15T13:57:18.634Z,0
2022-10-15T13:58:21.254Z,0
2022-10-15T13:59:18.683Z,0
2022-10-15T14:00:18.693Z,0
2022-10-15T14:01:18.709Z,0
2022-10-15T14:02:18.720Z,0
2022-10-15T14:03:18.724Z,0
2022-10-15T14:04:18.706Z,0
2022-10-15T14:05:18.711Z,0
2022-10-15T14:06:18.759Z,0
2022-10-15T14:07:18.776Z,0
2022-10-15T14:08:18.628Z,1
2022-10-15T14:09:18.746Z,0
2022-10-15T14:10:18.654Z,0
2022-10-15T14:11:18.669Z,0
2022-10-15T14:12:18.663Z,0
2022-10-15T14:13:18.672Z,0
2022-10-15T14:14:18.678Z,0
2022-10-15T14:15:18.682Z,1
2022-10-15T14:16:18.706Z,1
2022-10-15T14:17:18.695Z,0
2022-10-15T14:18:18.711Z,1
2022-10-15T14:19:18.622Z,1
2022-10-15T14:20:27.690Z,1
2022-10-15T14:21:18.721Z,1
2022-10-15T14:22:18.635Z,0
2022-10-15T14:23:18.736Z,0
2022-10-15T14:24:18.774Z,1
2022-10-15T14:25:18.648Z,0
2022-10-15T14:26:18.775Z,0
2022-10-15T14:27:18.654Z,0
2022-10-15T14:28:18.749Z,0
2022-10-15T14:29:18.657Z,1
2022-10-15T14:30:18.667Z,3
2022-10-15T14:31:18.688Z,2
2022-10-15T14:32:18.668Z,0
2022-10-15T14:33:18.699Z,0
2022-10-15T14:34:18.695Z,0
2022-10-15T14:35:18.649Z,1
2022-10-15T14:36:18.711Z,0
2022-10-15T14:37:18.717Z,1
2022-10-15T14:38:18.662Z,0
2022-10-15T14:39:18.730Z,0
2022-10-15T14:40:18.633Z,0
2022-10-15T14:41:18.628Z,0
2022-10-15T14:42:18.708Z,0
2022-10-15T14:43:18.738Z,0
2022-10-15T14:44:18.667Z,0
2022-10-15T14:45:18.733Z,1
2022-10-15T14:46:18.690Z,0
2022-10-15T14:47:18.845Z,0
2022-10-15T14:48:18.725Z,0